createdAt,value
2019-01-31T00:02:18.468Z,98113.86
2019-01-31T00:05:32.866Z,98112.94
2019-01-31T00:08:45.496Z,98108.48
2019-01-31T00:11:36.421Z,98109.05
2019-01-31T00:14:43.995Z,98108.52
2019-01-31T00:18:01.319Z,98107.56
2019-01-31T00:21:19.985Z,98103.53
2019-01-31T00:24:31.362Z,98104.06
2019-01-31T00:27:44.817Z,98108.09
2019-01-31T00:30:57.145Z,98101.73
2019-01-31T00:33:57.745Z,98109.22
2019-01-31T00:37:12.920Z,98112.52
2019-01-31T00:40:23.093Z,98113.25
2019-01-31T00:43:15.833Z,98108.59
2019-01-31T00:46:16.599Z,98116.54
2019-01-31T00:49:18.181Z,98121.69
2019-01-31T00:52:20.171Z,98124.95
2019-01-31T00:55:48.480Z,98115.97
2019-01-31T00:59:05.594Z,98119.40
2019-01-31T01:02:33.876Z,98120.98
2019-01-31T01:05:58.455Z,98123.16
2019-01-31T01:09:10.676Z,98117.06
2019-01-31T01:12:33.276Z,98115.30
2019-01-31T01:15:45.933Z,98114.58
2019-01-31T01:18:36.415Z,98120.63
2019-01-31T01:21:53.240Z,98113.28
2019-01-31T01:25:01.437Z,98116.47
2019-01-31T01:28:01.926Z,98123.88
2019-01-31T01:31:14.522Z,98123.66
2019-01-31T01:34:19.451Z,98123.75
2019-01-31T01:37:00.632Z,98122.35
2019-01-31T01:39:58.881Z,98116.56
2019-01-31T01:43:00.437Z,98112.95
2019-01-31T01:46:15.876Z,98115.84
2019-01-31T01:49:05.962Z,98111.25
2019-01-31T01:51:51.934Z,98108.98
2019-01-31T01:55:20.710Z,98105.20
2019-01-31T01:58:29.594Z,98104.09
2019-01-31T02:01:39.103Z,98104.50
2019-01-31T02:04:46.125Z,98100.91
2019-01-31T02:07:43.224Z,98102.17
2019-01-31T02:11:05.654Z,98098.11
2019-01-31T02:14:19.099Z,98094.32
2019-01-31T02:17:19.928Z,98095.81
2019-01-31T02:20:30.252Z,98089.14
2019-01-31T02:23:26.255Z,98097.84
2019-01-31T02:26:48.635Z,98094.29
2019-01-31T02:29:49.435Z,98093.45
2019-01-31T02:32:51.779Z,98088.50
2019-01-31T02:36:09.005Z,98088.59
2019-01-31T02:39:08.962Z,98089.82
2019-01-31T02:42:24.581Z,98081.25
2019-01-31T02:45:52.878Z,98085.77
2019-01-31T02:48:58.091Z,98086.69
2019-01-31T02:52:02.004Z,98087.31
2019-01-31T02:55:15.924Z,98090.83
2019-01-31T02:58:17.920Z,98081.99
2019-01-31T03:01:19.084Z,98080.29
2019-01-31T03:04:31.478Z,98075.56
2019-01-31T03:07:48.081Z,98072.08
2019-01-31T03:10:53.749Z,98070.47
2019-01-31T03:13:49.336Z,98071.23
2019-01-31T03:16:53.600Z,98073.63
2019-01-31T03:20:14.005Z,98075.16
2019-01-31T03:23:34.994Z,98081.24
2019-01-31T03:26:46.988Z,98080.55
2019-01-31T03:30:05.913Z,98075.45
2019-01-31T03:33:09.955Z,98069.88
2019-01-31T03:36:27.566Z,98072.31
2019-01-31T03:39:17.753Z,98064.97
2019-01-31T03:42:33.357Z,98068.78
2019-01-31T03:45:24.852Z,98066.75
2019-01-31T03:48:19.092Z,98060.94
2019-01-31T03:51:18.155Z,98062.15
2019-01-31T03:54:42.948Z,98064.89
2019-01-31T03:57:39.988Z,98063.41
2019-01-31T04:01:08.277Z,98056.20
2019-01-31T04:03:51.485Z,98060.22
2019-01-31T04:06:33.911Z,98060.30
2019-01-31T04:09:10.607Z,98061.73
2019-01-31T04:11:41.231Z,98058.70
2019-01-31T04:14:11.949Z,98058.79
2019-01-31T04:16:42.647Z,98052.34
2019-01-31T04:19:13.385Z,98056.63
2019-01-31T04:21:44.147Z,98055.14
2019-01-31T04:24:14.746Z,98049.59
2019-01-31T04:26:45.361Z,98055.73
2019-01-31T04:29:16.098Z,98055.56
2019-01-31T04:31:46.786Z,98045.53
2019-01-31T04:34:17.913Z,98042.84
2019-01-31T04:36:48.553Z,98044.42
2019-01-31T04:39:19.201Z,98044.65
2019-01-31T04:41:50.293Z,98040.27
2019-01-31T04:44:21.033Z,98042.22
2019-01-31T04:46:51.791Z,98043.74
2019-01-31T04:49:22.412Z,98044.47
2019-01-31T04:51:53.016Z,98044.70
2019-01-31T04:54:23.676Z,98047.70
2019-01-31T04:56:54.397Z,98057.26
2019-01-31T04:59:25.179Z,98054.41
2019-01-31T05:01:55.955Z,98056.48
2019-01-31T05:04:26.624Z,98055.93
2019-01-31T05:06:57.201Z,98062.82
2019-01-31T05:09:27.911Z,98062.18
2019-01-31T05:11:58.596Z,98063.95
2019-01-31T05:14:29.223Z,98060.78
2019-01-31T05:16:59.927Z,98056.91
2019-01-31T05:19:30.840Z,98063.16
2019-01-31T05:22:01.427Z,98068.14
2019-01-31T05:24:31.994Z,98066.31
2019-01-31T05:27:04.493Z,98059.39
2019-01-31T05:29:35.022Z,98058.37
2019-01-31T05:32:05.747Z,98054.64
2019-01-31T05:34:36.375Z,98065.45
2019-01-31T05:37:06.983Z,98070.72
2019-01-31T05:39:37.593Z,98074.50
2019-01-31T05:42:08.721Z,98070.00
2019-01-31T05:44:39.386Z,98072.06
2019-01-31T05:47:09.922Z,98075.92
2019-01-31T05:49:40.780Z,98070.66
2019-01-31T05:52:11.500Z,98078.98
2019-01-31T05:54:42.088Z,98076.02
2019-01-31T05:57:12.720Z,98076.88
2019-01-31T05:59:43.425Z,98070.05
2019-01-31T06:02:14.013Z,98073.39
2019-01-31T06:04:44.866Z,98082.22
2019-01-31T06:07:15.623Z,98078.09
2019-01-31T06:09:46.211Z,98081.97
2019-01-31T06:12:16.810Z,98078.09
2019-01-31T06:14:47.434Z,98081.48
2019-01-31T06:17:18.391Z,98086.39
2019-01-31T06:19:49.203Z,98091.52
2019-01-31T06:22:19.803Z,98088.41
2019-01-31T06:24:50.486Z,98090.31
2019-01-31T06:27:21.034Z,98094.50
2019-01-31T06:29:51.652Z,98088.63
2019-01-31T06:32:22.285Z,98096.34
2019-01-31T06:34:52.662Z,98097.52
2019-01-31T06:37:23.062Z,98101.72
2019-01-31T06:39:53.661Z,98103.94
2019-01-31T06:42:24.192Z,98100.96
2019-01-31T06:44:54.616Z,98097.01
2019-01-31T06:47:25.159Z,98100.93
2019-01-31T06:49:55.677Z,98107.66
2019-01-31T06:52:26.174Z,98097.33
2019-01-31T06:54:56.672Z,98102.97
2019-01-31T06:57:27.257Z,98100.41
2019-01-31T06:59:58.172Z,98097.30
2019-01-31T07:02:28.739Z,98103.83
2019-01-31T07:04:59.588Z,98106.98
2019-01-31T07:07:30.408Z,98099.50
2019-01-31T07:10:01.072Z,98097.09
2019-01-31T07:12:31.924Z,98101.45
2019-01-31T07:15:02.434Z,98100.04
2019-01-31T07:17:33.177Z,98096.45
2019-01-31T07:20:03.830Z,98107.59
2019-01-31T07:22:34.492Z,98108.98
2019-01-31T07:25:05.975Z,98106.22
2019-01-31T07:27:36.615Z,98093.47
2019-01-31T07:30:09.828Z,98099.08
2019-01-31T07:32:41.654Z,98091.92
2019-01-31T07:35:14.401Z,98093.55
2019-01-31T07:37:45.005Z,98096.35
2019-01-31T07:40:18.524Z,98096.59
2019-01-31T07:42:48.970Z,98096.75
2019-01-31T07:45:26.637Z,98103.25
2019-01-31T07:47:57.210Z,98096.64
2019-01-31T07:50:27.841Z,98090.97
2019-01-31T07:52:58.701Z,98094.70
2019-01-31T07:55:29.208Z,98100.91
2019-01-31T07:58:09.552Z,98095.52
2019-01-31T08:00:40.169Z,98100.53
2019-01-31T08:03:10.815Z,98101.14
2019-01-31T08:05:41.436Z,98104.72
2019-01-31T08:08:12.024Z,98110.17
2019-01-31T08:10:44.464Z,98106.69
2019-01-31T08:13:15.005Z,98104.94
2019-01-31T08:15:45.573Z,98107.97
2019-01-31T08:18:16.228Z,98119.27
2019-01-31T08:20:46.908Z,98116.91
2019-01-31T08:23:17.490Z,98120.66
2019-01-31T08:25:48.100Z,98117.49
2019-01-31T08:28:18.768Z,98118.87
2019-01-31T08:30:49.284Z,98122.58
2019-01-31T08:33:19.885Z,98119.55
2019-01-31T08:35:50.565Z,98120.50
2019-01-31T08:38:21.420Z,98109.53
2019-01-31T08:40:52.071Z,98113.20
2019-01-31T08:43:22.736Z,98106.62
2019-01-31T08:45:53.318Z,98109.34
2019-01-31T08:48:24.464Z,98116.70
2019-01-31T08:50:55.074Z,98117.18
2019-01-31T08:53:25.509Z,98115.14
2019-01-31T08:55:56.350Z,98112.19
2019-01-31T08:58:26.854Z,98110.64
2019-01-31T09:00:57.734Z,98103.16
2019-01-31T09:03:28.350Z,98106.75
2019-01-31T09:05:58.890Z,98117.64
2019-01-31T09:08:29.430Z,98104.08
2019-01-31T09:10:59.978Z,98106.13
2019-01-31T09:13:31.516Z,98103.96
2019-01-31T09:16:21.032Z,98103.16
2019-01-31T09:18:51.532Z,98101.78
2019-01-31T09:22:12.879Z,98103.20
2019-01-31T09:25:24.186Z,98101.44
2019-01-31T09:28:36.357Z,98094.30
2019-01-31T09:31:45.624Z,98096.77
2019-01-31T09:34:48.531Z,98102.60
2019-01-31T09:38:07.447Z,98096.58
2019-01-31T09:41:08.550Z,98099.55
2019-01-31T09:44:33.871Z,98101.55
2019-01-31T09:47:44.891Z,98095.70
2019-01-31T09:50:57.927Z,98105.53
2019-01-31T09:54:09.391Z,98102.58
2019-01-31T09:57:30.168Z,98098.60
2019-01-31T10:00:29.327Z,98111.98
2019-01-31T10:03:57.180Z,98113.78
2019-01-31T10:07:03.024Z,98116.16
2019-01-31T10:09:50.316Z,98118.51
2019-01-31T10:13:11.569Z,98114.43
2019-01-31T10:16:24.406Z,98121.00
2019-01-31T10:19:38.740Z,98116.39
2019-01-31T10:22:56.974Z,98111.22
2019-01-31T10:26:06.366Z,98112.98
2019-01-31T10:29:19.320Z,98105.97
2019-01-31T10:32:32.262Z,98099.91
2019-01-31T10:35:44.064Z,98096.67
2019-01-31T10:38:48.477Z,98092.59
2019-01-31T10:42:10.548Z,98087.21
2019-01-31T10:45:22.812Z,98092.31
2019-01-31T10:48:28.049Z,98093.36
2019-01-31T10:51:54.716Z,98093.70
2019-01-31T10:55:22.575Z,98087.71
2019-01-31T10:58:38.156Z,98095.30
2019-01-31T11:02:04.626Z,98088.22
2019-01-31T11:05:18.386Z,98102.27
2019-01-31T11:08:46.276Z,98091.06
2019-01-31T11:11:59.517Z,98087.05
2019-01-31T11:15:03.333Z,98087.58
2019-01-31T11:18:25.697Z,98085.09
2019-01-31T11:21:53.551Z,98078.38
2019-01-31T11:25:08.006Z,98080.59
2019-01-31T11:28:08.845Z,98081.06
2019-01-31T11:31:01.136Z,98076.08
2019-01-31T11:34:33.074Z,98079.90
2019-01-31T11:37:58.815Z,98082.25
2019-01-31T11:41:26.685Z,98088.70
2019-01-31T11:44:52.008Z,98094.00
2019-01-31T11:48:02.254Z,98087.63
2019-01-31T11:51:20.650Z,98091.67
2019-01-31T11:54:08.794Z,98078.72
2019-01-31T11:57:30.678Z,98079.50
2019-01-31T12:00:01.306Z,98078.06
2019-01-31T12:02:32.008Z,98079.89
2019-01-31T12:05:02.487Z,98073.16
2019-01-31T12:07:33.159Z,98081.05
2019-01-31T12:10:03.875Z,98082.48
2019-01-31T12:12:34.520Z,98078.40
2019-01-31T12:15:07.045Z,98080.13
2019-01-31T12:17:38.036Z,98072.58
2019-01-31T12:20:10.064Z,98074.47
2019-01-31T12:22:40.870Z,98078.58
2019-01-31T12:25:11.931Z,98079.28
2019-01-31T12:27:42.503Z,98078.95
2019-01-31T12:30:19.320Z,98069.61
2019-01-31T12:32:49.851Z,98065.73
2019-01-31T12:35:20.433Z,98068.75
2019-01-31T12:37:51.247Z,98075.09
2019-01-31T12:40:21.906Z,98073.03
2019-01-31T12:42:52.690Z,98075.52
2019-01-31T12:45:23.626Z,98075.91
2019-01-31T12:47:54.157Z,98069.40
2019-01-31T12:50:28.123Z,98062.22
2019-01-31T12:52:58.664Z,98063.37
2019-01-31T12:55:29.229Z,98073.39
2019-01-31T12:57:59.854Z,98069.48
2019-01-31T13:00:31.407Z,98062.92
2019-01-31T13:03:02.006Z,98071.04
2019-01-31T13:05:32.486Z,98064.06
2019-01-31T13:08:03.037Z,98070.21
2019-01-31T13:10:33.600Z,98067.30
2019-01-31T13:13:04.690Z,98067.60
2019-01-31T13:15:35.700Z,98067.44
2019-01-31T13:18:07.189Z,98066.09
2019-01-31T13:20:37.824Z,98061.98
2019-01-31T13:23:08.764Z,98071.45
2019-01-31T13:25:39.445Z,98063.69
2019-01-31T13:28:10.095Z,98063.69
2019-01-31T13:30:40.615Z,98067.06
2019-01-31T13:33:12.772Z,98064.13
2019-01-31T13:35:43.415Z,98065.63
2019-01-31T13:38:14.010Z,98071.06
2019-01-31T13:40:44.554Z,98071.83
2019-01-31T13:43:15.297Z,98072.84
2019-01-31T13:45:45.878Z,98075.16
2019-01-31T13:48:18.037Z,98076.30
2019-01-31T13:50:48.697Z,98080.11
2019-01-31T13:53:19.408Z,98078.66
2019-01-31T13:55:50.195Z,98076.93
2019-01-31T13:58:20.870Z,98073.26
2019-01-31T14:00:55.425Z,98080.77
2019-01-31T14:03:27.896Z,98077.98
2019-01-31T14:05:59.083Z,98074.09
2019-01-31T14:08:31.702Z,98078.53
2019-01-31T14:11:02.398Z,98075.22
2019-01-31T14:13:33.078Z,98076.12
2019-01-31T14:16:03.818Z,98076.92
2019-01-31T14:18:34.451Z,98078.11
2019-01-31T14:21:05.197Z,98080.91
2019-01-31T14:23:35.937Z,98080.81
2019-01-31T14:26:07.223Z,98074.65
2019-01-31T14:28:37.897Z,98071.39
2019-01-31T14:31:08.617Z,98081.31
2019-01-31T14:33:39.305Z,98083.94
2019-01-31T14:36:10.240Z,98079.66
2019-01-31T14:38:40.850Z,98081.91
2019-01-31T14:41:11.566Z,98080.83
2019-01-31T14:43:42.095Z,98076.96
2019-01-31T14:46:13.114Z,98077.44
2019-01-31T14:48:44.384Z,98082.95
2019-01-31T14:51:14.945Z,98077.72
2019-01-31T14:53:45.725Z,98077.64
2019-01-31T14:56:16.521Z,98077.72
2019-01-31T14:58:47.045Z,98077.77
2019-01-31T15:01:17.704Z,98080.50
2019-01-31T15:03:48.289Z,98079.80
2019-01-31T15:06:19.165Z,98079.18
2019-01-31T15:08:50.126Z,98080.31
2019-01-31T15:11:20.845Z,98084.56
2019-01-31T15:13:51.566Z,98074.33
2019-01-31T15:16:22.317Z,98079.25
2019-01-31T15:18:53.116Z,98083.04
2019-01-31T15:21:24.314Z,98083.90
2019-01-31T15:23:55.535Z,98085.17
2019-01-31T15:26:29.147Z,98090.19
2019-01-31T15:28:59.797Z,98096.80
2019-01-31T15:31:30.556Z,98092.11
2019-01-31T15:34:01.387Z,98092.11
2019-01-31T15:36:32.234Z,98099.30
2019-01-31T15:39:03.001Z,98098.62
2019-01-31T15:41:33.601Z,98094.20
2019-01-31T15:44:04.254Z,98093.58
2019-01-31T15:46:34.980Z,98098.20
2019-01-31T15:49:05.632Z,98105.31
2019-01-31T15:51:36.333Z,98103.04
2019-01-31T15:54:07.921Z,98108.02
2019-01-31T15:56:38.765Z,98103.09
2019-01-31T15:59:09.597Z,98107.19
2019-01-31T16:01:40.323Z,98106.48
2019-01-31T16:04:11.322Z,98108.13
2019-01-31T16:06:41.931Z,98109.30
2019-01-31T16:09:12.583Z,98107.50
2019-01-31T16:11:43.237Z,98113.16
2019-01-31T16:14:13.974Z,98107.07
2019-01-31T16:16:44.634Z,98107.23
2019-01-31T16:19:15.404Z,98115.13
2019-01-31T16:21:46.217Z,98111.48
2019-01-31T16:24:17.028Z,98110.36
2019-01-31T16:26:47.702Z,98118.94
2019-01-31T16:29:18.393Z,98119.84
2019-01-31T16:31:49.239Z,98121.43
2019-01-31T16:34:20.248Z,98115.52
2019-01-31T16:36:54.039Z,98114.89
2019-01-31T16:39:27.422Z,98123.20
2019-01-31T16:41:58.087Z,98120.70
2019-01-31T16:44:31.688Z,98120.41
2019-01-31T16:47:02.578Z,98117.94
2019-01-31T16:49:34.285Z,98117.56
2019-01-31T16:52:05.209Z,98115.73
2019-01-31T16:54:37.427Z,98116.74
2019-01-31T16:57:08.205Z,98107.12
2019-01-31T16:59:38.837Z,98108.80
2019-01-31T17:02:09.509Z,98106.64
2019-01-31T17:04:42.829Z,98109.81
2019-01-31T17:07:16.843Z,98109.84
2019-01-31T17:09:47.837Z,98105.81
2019-01-31T17:12:18.637Z,98107.86
2019-01-31T17:14:51.677Z,98104.45
2019-01-31T17:17:23.717Z,98102.28
2019-01-31T17:19:54.482Z,98105.64
2019-01-31T17:22:25.496Z,98103.09
2019-01-31T17:24:56.263Z,98100.98
2019-01-31T17:27:28.182Z,98108.63
2019-01-31T17:30:00.205Z,98111.31
2019-01-31T17:32:35.858Z,98106.88
2019-01-31T17:35:09.438Z,98105.27
2019-01-31T17:37:42.196Z,98101.59
2019-01-31T17:40:21.672Z,98109.59
2019-01-31T17:42:52.286Z,98105.53
2019-01-31T17:45:30.378Z,98111.15
2019-01-31T17:48:02.844Z,98110.41
2019-01-31T17:50:36.351Z,98114.47
2019-01-31T17:53:08.179Z,98114.23
2019-01-31T17:55:41.570Z,98118.41
2019-01-31T17:58:11.690Z,98115.52
2019-01-31T18:00:51.877Z,98116.26
2019-01-31T18:03:22.506Z,98114.38
2019-01-31T18:05:58.093Z,98119.95
2019-01-31T18:08:33.816Z,98115.25
2019-01-31T18:11:04.491Z,98115.14
2019-01-31T18:13:36.151Z,98108.92
2019-01-31T18:16:11.843Z,98112.48
2019-01-31T18:18:44.023Z,98111.97
2019-01-31T18:21:20.633Z,98114.39
2019-01-31T18:23:51.227Z,98108.42
2019-01-31T18:26:21.899Z,98111.97
2019-01-31T18:28:57.289Z,98111.96
2019-01-31T18:31:28.292Z,98111.94
2019-01-31T18:33:59.026Z,98113.72
2019-01-31T18:36:32.777Z,98113.73
2019-01-31T18:39:07.147Z,98119.59
2019-01-31T18:41:41.532Z,98123.53
2019-01-31T18:44:14.584Z,98124.29
2019-01-31T18:46:49.980Z,98119.47
2019-01-31T18:49:28.271Z,98117.21
2019-01-31T18:52:00.209Z,98123.41
2019-01-31T18:54:32.127Z,98121.39
2019-01-31T18:57:07.513Z,98124.17
2019-01-31T18:59:46.052Z,98124.95
2019-01-31T19:02:20.598Z,98121.52
2019-01-31T19:04:51.536Z,98118.33
2019-01-31T19:07:27.066Z,98117.08
2019-01-31T19:10:05.847Z,98121.25
2019-01-31T19:12:41.193Z,98121.91
2019-01-31T19:15:15.327Z,98121.91
2019-01-31T19:17:46.553Z,98117.86
2019-01-31T19:20:28.973Z,98117.20
2019-01-31T19:23:06.581Z,98110.48
2019-01-31T19:25:44.097Z,98115.67
2019-01-31T19:28:29.907Z,98102.98
2019-01-31T19:31:09.058Z,98107.83
2019-01-31T19:33:42.586Z,98112.01
2019-01-31T19:36:19.431Z,98111.25
2019-01-31T19:38:56.255Z,98111.91
2019-01-31T19:41:42.470Z,98115.05
2019-01-31T19:44:15.252Z,98113.91
2019-01-31T19:46:46.382Z,98106.19
2019-01-31T19:49:17.112Z,98106.80
2019-01-31T19:51:52.189Z,98110.98
2019-01-31T19:54:25.357Z,98110.23
2019-01-31T19:56:59.453Z,98112.77
2019-01-31T19:59:30.292Z,98117.19
2019-01-31T20:02:05.035Z,98108.68
2019-01-31T20:04:35.871Z,98113.50
2019-01-31T20:07:13.406Z,98114.65
2019-01-31T20:09:45.333Z,98113.38
2019-01-31T20:12:24.546Z,98109.45
2019-01-31T20:15:05.185Z,98113.02
2019-01-31T20:17:37.279Z,98115.67
2019-01-31T20:20:15.134Z,98108.19
2019-01-31T20:22:49.177Z,98106.92
2019-01-31T20:25:24.136Z,98111.75
2019-01-31T20:27:56.710Z,98105.66
2019-01-31T20:30:34.930Z,98106.92
2019-01-31T20:33:08.277Z,98099.69
2019-01-31T20:35:41.527Z,98106.15
2019-01-31T20:38:14.582Z,98104.27
2019-01-31T20:40:52.306Z,98108.69
2019-01-31T20:43:32.852Z,98105.66
2019-01-31T20:46:13.846Z,98108.44
2019-01-31T20:48:47.926Z,98105.16
2019-01-31T20:51:21.880Z,98107.95
2019-01-31T20:53:52.660Z,98108.68
2019-01-31T20:56:23.321Z,98113.63
2019-01-31T20:58:58.681Z,98106.27
2019-01-31T21:01:30.751Z,98107.41
2019-01-31T21:04:03.837Z,98112.23
2019-01-31T21:06:41.594Z,98107.28
2019-01-31T21:09:11.706Z,98107.77
2019-01-31T21:11:44.539Z,98109.44
2019-01-31T21:14:16.787Z,98108.42
2019-01-31T21:16:53.896Z,98113.00
2019-01-31T21:19:25.145Z,98114.52
2019-01-31T21:22:00.411Z,98115.42
2019-01-31T21:24:33.330Z,98108.19
2019-01-31T21:27:04.374Z,98115.18
2019-01-31T21:29:35.425Z,98115.55
2019-01-31T21:32:08.473Z,98126.95
2019-01-31T21:34:43.379Z,98114.77
2019-01-31T21:37:18.620Z,98110.73
2019-01-31T21:39:50.394Z,98111.88
2019-01-31T21:42:21.109Z,98117.06
2019-01-31T21:44:51.889Z,98113.51
2019-01-31T21:47:22.587Z,98116.56
2019-01-31T21:49:54.203Z,98115.42
2019-01-31T21:52:28.069Z,98124.00
2019-01-31T21:54:58.826Z,98119.57
2019-01-31T21:57:29.371Z,98119.27
2019-01-31T22:00:00.986Z,98123.05
2019-01-31T22:02:31.558Z,98120.25
2019-01-31T22:05:02.087Z,98118.81
2019-01-31T22:07:33.022Z,98124.52
2019-01-31T22:10:03.971Z,98121.59
2019-01-31T22:12:34.657Z,98118.69
2019-01-31T22:15:12.015Z,98117.84
2019-01-31T22:17:42.606Z,98123.52
2019-01-31T22:20:13.977Z,98122.11
2019-01-31T22:22:44.534Z,98119.71
2019-01-31T22:25:18.379Z,98110.25
2019-01-31T22:27:49.052Z,98112.55
2019-01-31T22:30:30.466Z,98121.00
2019-01-31T22:33:01.308Z,98114.67
2019-01-31T22:35:32.667Z,98110.37
2019-01-31T22:38:03.298Z,98109.85
2019-01-31T22:40:34.228Z,98107.48
2019-01-31T22:43:05.111Z,98106.11
2019-01-31T22:45:37.125Z,98103.17
2019-01-31T22:48:08.997Z,98092.17
2019-01-31T22:50:40.012Z,98093.94
2019-01-31T22:53:10.614Z,98095.45
2019-01-31T22:55:41.315Z,98100.26
2019-01-31T22:58:11.971Z,98099.70
2019-01-31T23:01:31.520Z,98095.63
2019-01-31T23:04:02.786Z,98090.31
2019-01-31T23:06:33.473Z,98081.97
2019-01-31T23:09:06.381Z,98094.86
2019-01-31T23:11:36.978Z,98099.02
2019-01-31T23:14:07.948Z,98092.78
2019-01-31T23:16:38.805Z,98099.84
2019-01-31T23:19:09.544Z,98094.77
2019-01-31T23:21:40.434Z,98093.33
2019-01-31T23:24:11.056Z,98095.11
2019-01-31T23:26:41.546Z,98094.98
2019-01-31T23:29:12.310Z,98091.42
2019-01-31T23:31:43.039Z,98085.83
2019-01-31T23:34:13.561Z,98092.14
2019-01-31T23:36:44.101Z,98086.32
2019-01-31T23:39:14.827Z,98080.97
2019-01-31T23:41:45.517Z,98087.05
2019-01-31T23:44:16.293Z,98090.05
2019-01-31T23:46:46.963Z,98089.14
2019-01-31T23:49:17.542Z,98091.01
2019-01-31T23:51:48.141Z,98088.45
2019-01-31T23:54:18.772Z,98084.12
2019-01-31T23:56:49.390Z,98079.23
2019-01-31T23:59:20.097Z,98082.63
